createdAt,value
2018-07-25T00:00:15.067Z,56.08
2018-07-25T00:02:42.817Z,50.66
2018-07-25T00:05:10.655Z,55.69
2018-07-25T00:07:38.521Z,55.69
2018-07-25T00:10:08.547Z,57.31
2018-07-25T00:12:36.412Z,58.02
2018-07-25T00:15:04.656Z,58.51
2018-07-25T00:17:32.491Z,58.42
2018-07-25T00:20:00.295Z,57.62
2018-07-25T00:22:28.231Z,54.01
2018-07-25T00:24:56.067Z,55.61
2018-07-25T00:27:23.879Z,56.47
2018-07-25T00:29:51.723Z,56.94
2018-07-25T00:32:19.540Z,54.16
2018-07-25T00:34:47.358Z,55.96
2018-07-25T00:37:15.115Z,55.35
2018-07-25T00:39:42.951Z,56.56
2018-07-25T00:42:10.775Z,55.97
2018-07-25T00:44:38.628Z,55.94
2018-07-25T00:47:06.371Z,55.60
2018-07-25T00:49:34.187Z,54.00
2018-07-25T00:52:01.964Z,56.61
2018-07-25T00:54:29.799Z,54.85
2018-07-25T00:56:57.583Z,55.49
2018-07-25T00:59:25.390Z,55.75
2018-07-25T01:01:53.188Z,54.74
2018-07-25T01:04:21.026Z,55.97
2018-07-25T01:06:48.779Z,52.70
2018-07-25T01:09:16.603Z,51.08
2018-07-25T01:11:44.427Z,51.53
2018-07-25T01:14:12.247Z,51.72
2018-07-25T01:16:40.028Z,51.25
2018-07-25T01:19:07.804Z,58.23
2018-07-25T01:21:35.606Z,52.34
2018-07-25T01:24:03.488Z,56.59
2018-07-25T01:26:31.291Z,55.96
2018-07-25T01:28:59.075Z,59.63
2018-07-25T01:31:26.912Z,61.31
2018-07-25T01:33:54.731Z,59.77
2018-07-25T01:36:22.535Z,60.58
2018-07-25T01:38:50.355Z,55.52
2018-07-25T01:41:18.159Z,61.07
2018-07-25T01:43:45.937Z,62.53
2018-07-25T01:46:13.683Z,61.26
2018-07-25T01:48:41.459Z,61.90
2018-07-25T01:51:09.295Z,60.16
2018-07-25T01:53:37.093Z,63.28
2018-07-25T01:56:05.296Z,58.03
2018-07-25T01:58:33.108Z,57.80
2018-07-25T02:01:00.887Z,59.13
2018-07-25T02:03:28.683Z,57.97
2018-07-25T02:05:56.458Z,63.65
2018-07-25T02:08:24.263Z,61.90
2018-07-25T02:10:52.071Z,65.25
2018-07-25T02:13:19.863Z,65.91
2018-07-25T02:15:47.695Z,62.68
2018-07-25T02:18:15.511Z,62.81
2018-07-25T02:20:43.376Z,63.12
2018-07-25T02:23:11.162Z,61.95
2018-07-25T02:25:38.953Z,57.93
2018-07-25T02:28:06.763Z,58.81
2018-07-25T02:30:34.536Z,60.39
2018-07-25T02:33:02.369Z,63.00
2018-07-25T02:35:30.175Z,61.57
2018-07-25T02:37:57.995Z,64.32
2018-07-25T02:40:25.807Z,62.89
2018-07-25T02:42:53.892Z,65.05
2018-07-25T02:45:21.647Z,65.86
2018-07-25T02:47:49.455Z,61.61
2018-07-25T02:50:17.227Z,62.92
2018-07-25T02:52:45.024Z,61.92
2018-07-25T02:55:12.732Z,62.69
2018-07-25T02:57:40.506Z,60.28
2018-07-25T03:00:08.460Z,63.29
2018-07-25T03:02:36.263Z,60.98
2018-07-25T03:05:04.244Z,60.04
2018-07-25T03:07:32.187Z,65.38
2018-07-25T03:10:00.004Z,60.57
2018-07-25T03:12:27.827Z,58.22
2018-07-25T03:14:55.579Z,59.78
2018-07-25T03:17:23.387Z,59.35
2018-07-25T03:19:51.211Z,64.63
2018-07-25T03:22:19.036Z,65.81
2018-07-25T03:24:46.779Z,65.14
2018-07-25T03:27:14.597Z,61.03
2018-07-25T03:29:42.386Z,61.81
2018-07-25T03:32:10.215Z,67.66
2018-07-25T03:34:37.991Z,61.85
2018-07-25T03:37:05.792Z,62.13
2018-07-25T03:39:33.538Z,59.82
2018-07-25T03:42:01.288Z,65.60
2018-07-25T03:44:29.103Z,64.91
2018-07-25T03:46:56.847Z,67.57
2018-07-25T03:49:24.561Z,61.75
2018-07-25T03:51:52.403Z,60.67
2018-07-25T03:54:20.211Z,69.13
2018-07-25T03:56:47.950Z,65.21
2018-07-25T03:59:15.722Z,65.94
2018-07-25T04:01:43.567Z,64.70
2018-07-25T04:04:11.405Z,69.91
2018-07-25T04:06:39.235Z,68.79
2018-07-25T04:09:08.432Z,70.03
2018-07-25T04:11:36.423Z,69.76
2018-07-25T04:14:04.282Z,68.55
2018-07-25T04:16:32.070Z,65.57
2018-07-25T04:18:59.917Z,67.59
2018-07-25T04:21:27.667Z,67.11
2018-07-25T04:23:55.448Z,62.46
2018-07-25T04:26:23.311Z,64.61
2018-07-25T04:28:51.139Z,64.21
2018-07-25T04:31:18.887Z,65.26
2018-07-25T04:33:46.732Z,65.65
2018-07-25T04:36:14.503Z,65.19
2018-07-25T04:38:42.287Z,67.57
2018-07-25T04:41:10.055Z,69.67
2018-07-25T04:43:37.879Z,69.83
2018-07-25T04:46:05.742Z,70.55
2018-07-25T04:48:33.504Z,70.08
2018-07-25T04:51:01.268Z,70.54
2018-07-25T04:53:29.083Z,71.23
2018-07-25T04:55:57.111Z,68.37
2018-07-25T04:58:25.775Z,70.23
2018-07-25T05:00:53.630Z,69.89
2018-07-25T05:03:21.486Z,68.78
2018-07-25T05:05:49.251Z,66.85
2018-07-25T05:08:17.096Z,69.32
2018-07-25T05:10:44.838Z,67.71
2018-07-25T05:13:12.627Z,67.59
2018-07-25T05:15:40.499Z,67.15
2018-07-25T05:18:08.375Z,65.43
2018-07-25T05:20:36.147Z,63.64
2018-07-25T05:23:03.924Z,62.98
2018-07-25T05:25:31.755Z,60.53
2018-07-25T05:27:59.544Z,58.73
2018-07-25T05:30:27.456Z,57.88
2018-07-25T05:32:55.243Z,56.44
2018-07-25T05:35:23.011Z,55.15
2018-07-25T05:37:50.808Z,53.43
2018-07-25T05:40:18.786Z,50.46
2018-07-25T05:42:46.607Z,49.66
2018-07-25T05:45:14.407Z,48.21
2018-07-25T05:47:42.211Z,48.19
2018-07-25T05:50:10.084Z,48.25
2018-07-25T05:52:37.904Z,48.41
2018-07-25T05:55:05.809Z,48.32
2018-07-25T05:57:34.236Z,47.91
2018-07-25T06:00:02.025Z,47.63
2018-07-25T06:02:29.856Z,47.09
2018-07-25T06:04:57.666Z,46.02
2018-07-25T06:07:25.502Z,46.01
2018-07-25T06:09:53.323Z,46.59
2018-07-25T06:12:21.120Z,45.77
2018-07-25T06:14:48.909Z,45.10
2018-07-25T06:17:16.673Z,45.45
2018-07-25T06:19:44.450Z,45.62
2018-07-25T06:22:12.311Z,44.07
2018-07-25T06:24:40.117Z,44.12
2018-07-25T06:27:08.735Z,44.28
2018-07-25T06:29:36.492Z,43.48
2018-07-25T06:32:04.303Z,42.31
2018-07-25T06:34:32.123Z,42.42
2018-07-25T06:36:59.981Z,42.08
2018-07-25T06:39:27.784Z,41.67
2018-07-25T06:41:55.568Z,40.80
2018-07-25T06:44:23.351Z,41.64
2018-07-25T06:46:51.079Z,40.38
2018-07-25T06:49:18.883Z,40.24
2018-07-25T06:51:46.657Z,41.35
2018-07-25T06:54:14.411Z,41.12
2018-07-25T06:56:42.126Z,40.60
2018-07-25T06:59:09.881Z,41.41
2018-07-25T07:01:37.655Z,38.60
2018-07-25T07:04:05.581Z,39.75
2018-07-25T07:06:33.384Z,38.15
2018-07-25T07:09:01.272Z,38.62
2018-07-25T07:11:29.413Z,38.26
2018-07-25T07:13:57.410Z,38.84
2018-07-25T07:16:25.288Z,38.90
2018-07-25T07:18:53.107Z,38.45
2018-07-25T07:21:20.955Z,38.78
2018-07-25T07:23:55.637Z,38.02
2018-07-25T07:26:26.187Z,37.45
2018-07-25T07:28:57.113Z,37.33
2018-07-25T07:31:28.099Z,36.32
2018-07-25T07:33:55.772Z,34.59
2018-07-25T07:36:23.577Z,36.16
2018-07-25T07:38:51.337Z,35.81
2018-07-25T07:41:19.155Z,35.83
2018-07-25T07:43:46.881Z,36.45
2018-07-25T07:46:14.735Z,33.70
2018-07-25T07:48:42.512Z,35.25
2018-07-25T07:51:10.351Z,35.65
2018-07-25T07:53:38.202Z,35.27
2018-07-25T07:56:05.964Z,34.60
2018-07-25T07:58:33.826Z,32.94
2018-07-25T08:01:01.716Z,32.90
2018-07-25T08:03:29.564Z,31.32
2018-07-25T08:05:57.478Z,32.30
2018-07-25T08:08:25.311Z,32.81
2018-07-25T08:10:53.140Z,32.96
2018-07-25T08:13:23.244Z,33.12
2018-07-25T08:15:50.987Z,33.35
2018-07-25T08:18:18.854Z,33.54
2018-07-25T08:20:47.374Z,34.10
2018-07-25T08:23:19.601Z,33.29
2018-07-25T08:25:47.945Z,33.53
2018-07-25T08:28:15.732Z,32.75
2018-07-25T08:30:43.566Z,34.33
2018-07-25T08:33:11.463Z,33.64
2018-07-25T08:35:39.359Z,33.26
2018-07-25T08:38:07.189Z,32.77
2018-07-25T08:40:34.927Z,33.61
2018-07-25T08:43:02.659Z,32.94
2018-07-25T08:45:30.507Z,32.91
2018-07-25T08:47:59.411Z,33.30
2018-07-25T08:50:27.263Z,34.16
2018-07-25T08:52:55.055Z,33.67
2018-07-25T08:55:22.824Z,33.27
2018-07-25T08:57:50.790Z,31.97
2018-07-25T09:00:18.552Z,31.62
2018-07-25T09:02:46.387Z,31.92
2018-07-25T09:05:14.127Z,30.86
2018-07-25T09:07:41.979Z,32.50
2018-07-25T09:10:09.817Z,32.58
2018-07-25T09:12:37.672Z,32.31
2018-07-25T09:15:05.795Z,30.95
2018-07-25T09:17:33.563Z,30.45
2018-07-25T09:20:01.320Z,31.93
2018-07-25T09:22:29.114Z,32.12
2018-07-25T09:24:56.939Z,31.39
2018-07-25T09:27:24.695Z,32.50
2018-07-25T09:29:52.463Z,31.61
2018-07-25T09:32:20.235Z,30.24
2018-07-25T09:34:48.003Z,30.33
2018-07-25T09:37:15.776Z,30.64
2018-07-25T09:39:43.587Z,29.58
2018-07-25T09:42:11.381Z,30.82
2018-07-25T09:44:39.177Z,30.25
2018-07-25T09:47:07.208Z,29.75
2018-07-25T09:49:34.964Z,29.21
2018-07-25T09:52:02.806Z,28.69
2018-07-25T09:54:30.569Z,29.76
2018-07-25T09:56:58.323Z,27.93
2018-07-25T09:59:26.178Z,27.60
2018-07-25T10:01:54.028Z,26.57
2018-07-25T10:04:21.828Z,25.65
2018-07-25T10:06:49.584Z,23.42
2018-07-25T10:09:17.407Z,22.76
2018-07-25T10:11:45.231Z,22.38
2018-07-25T10:14:13.047Z,21.72
2018-07-25T10:16:40.878Z,21.79
2018-07-25T10:19:08.679Z,21.04
2018-07-25T10:21:36.418Z,21.28
2018-07-25T10:24:04.540Z,21.27
2018-07-25T10:26:32.332Z,20.58
2018-07-25T10:29:00.058Z,19.89
2018-07-25T10:31:27.772Z,20.86
2018-07-25T10:33:55.584Z,18.99
2018-07-25T10:36:23.372Z,18.92
2018-07-25T10:38:51.107Z,18.74
2018-07-25T10:41:18.887Z,17.29
2018-07-25T10:43:46.739Z,14.20
2018-07-25T10:46:14.484Z,14.41
2018-07-25T10:48:42.293Z,15.36
2018-07-25T10:51:10.124Z,14.09
2018-07-25T10:53:37.895Z,13.89
2018-07-25T10:56:05.758Z,13.18
2018-07-25T10:58:33.555Z,11.80
2018-07-25T11:01:01.311Z,11.98
2018-07-25T11:03:29.808Z,11.60
2018-07-25T11:05:57.666Z,11.25
2018-07-25T11:08:25.511Z,10.50
2018-07-25T11:10:53.303Z,10.98
2018-07-25T11:13:21.106Z,10.12
2018-07-25T11:15:48.891Z,10.27
2018-07-25T11:18:16.952Z,10.35
2018-07-25T11:20:44.777Z,9.76
2018-07-25T11:23:12.745Z,10.27
2018-07-25T11:25:40.503Z,10.01
2018-07-25T11:28:08.351Z,9.47
2018-07-25T11:30:36.109Z,8.92
2018-07-25T11:33:03.952Z,9.29
2018-07-25T11:35:31.770Z,9.19
2018-07-25T11:37:59.552Z,8.51
2018-07-25T11:40:27.380Z,8.45
2018-07-25T11:42:55.180Z,8.53
2018-07-25T11:45:23.105Z,8.21
2018-07-25T11:47:50.951Z,8.72
2018-07-25T11:50:18.830Z,8.59
2018-07-25T11:52:46.619Z,9.28
2018-07-25T11:55:14.379Z,7.60
2018-07-25T11:57:42.166Z,7.79
2018-07-25T12:00:09.995Z,7.86
2018-07-25T12:02:37.828Z,7.88
2018-07-25T12:05:05.903Z,8.30
2018-07-25T12:07:33.807Z,9.33
2018-07-25T12:10:01.691Z,9.11
2018-07-25T12:12:29.468Z,9.15
2018-07-25T12:14:57.254Z,9.31
2018-07-25T12:17:25.106Z,8.81
2018-07-25T12:19:52.966Z,8.81
2018-07-25T12:22:20.751Z,9.21
2018-07-25T12:24:48.594Z,8.76
2018-07-25T12:27:16.384Z,8.49
2018-07-25T12:29:44.103Z,9.68
2018-07-25T12:32:13.167Z,9.17
2018-07-25T12:34:40.885Z,9.40
2018-07-25T12:37:08.644Z,10.09
2018-07-25T12:39:36.419Z,9.28
2018-07-25T12:42:04.238Z,9.35
2018-07-25T12:44:32.021Z,9.34
2018-07-25T12:46:59.840Z,9.07
2018-07-25T12:49:27.620Z,8.79
2018-07-25T12:51:55.515Z,10.69
2018-07-25T12:54:23.411Z,8.80
2018-07-25T12:56:51.245Z,10.55
2018-07-25T12:59:19.032Z,10.11
2018-07-25T13:01:46.819Z,10.42
2018-07-25T13:04:14.539Z,10.57
2018-07-25T13:06:42.366Z,9.33
2018-07-25T13:09:11.247Z,9.21
2018-07-25T13:11:38.979Z,10.00
2018-07-25T13:14:06.992Z,11.16
2018-07-25T13:16:34.946Z,9.71
2018-07-25T13:19:02.947Z,10.92
2018-07-25T13:21:30.760Z,11.06
2018-07-25T13:23:58.656Z,12.09
2018-07-25T13:26:26.443Z,11.93
2018-07-25T13:28:54.207Z,11.91
2018-07-25T13:31:22.070Z,11.94
2018-07-25T13:33:49.883Z,11.83
2018-07-25T13:36:17.761Z,11.78
2018-07-25T13:38:45.577Z,11.90
2018-07-25T13:41:13.410Z,12.67
2018-07-25T13:43:41.139Z,11.64
2018-07-25T13:46:08.999Z,13.37
2018-07-25T13:48:36.775Z,13.12
2018-07-25T13:51:05.661Z,13.43
2018-07-25T13:53:35.932Z,13.11
2018-07-25T13:56:08.190Z,14.18
2018-07-25T13:58:36.038Z,14.31
2018-07-25T14:01:04.686Z,13.54
2018-07-25T14:03:32.483Z,13.61
2018-07-25T14:06:00.208Z,13.88
2018-07-25T14:08:28.220Z,14.41
2018-07-25T14:10:56.031Z,15.51
2018-07-25T14:13:23.871Z,15.14
2018-07-25T14:15:51.623Z,15.20
2018-07-25T14:18:19.451Z,15.01
2018-07-25T14:20:47.797Z,15.20
2018-07-25T14:23:15.875Z,15.82
2018-07-25T14:25:44.176Z,16.01
2018-07-25T14:28:12.396Z,15.87
2018-07-25T14:30:46.307Z,15.78
2018-07-25T14:33:15.652Z,15.43
2018-07-25T14:35:43.510Z,14.96
2018-07-25T14:38:16.433Z,15.17
2018-07-25T14:40:47.190Z,16.24
2018-07-25T14:43:18.122Z,15.11
2018-07-25T14:45:46.980Z,15.73
2018-07-25T14:48:14.893Z,16.31
2018-07-25T14:50:43.007Z,15.33
2018-07-25T14:53:10.905Z,15.90
2018-07-25T14:55:38.747Z,16.14
2018-07-25T14:58:06.824Z,17.13
2018-07-25T15:00:34.651Z,17.62
2018-07-25T15:03:02.510Z,16.65
2018-07-25T15:05:30.359Z,16.81
2018-07-25T15:07:58.155Z,16.80
2018-07-25T15:10:26.028Z,16.44
2018-07-25T15:12:56.078Z,17.39
2018-07-25T15:15:28.656Z,17.84
2018-07-25T15:17:56.886Z,17.53
2018-07-25T15:20:32.440Z,17.68
2018-07-25T15:23:00.407Z,17.66
2018-07-25T15:25:28.201Z,17.32
2018-07-25T15:27:56.148Z,17.21
2018-07-25T15:30:27.429Z,17.59
2018-07-25T15:32:55.323Z,17.42
2018-07-25T15:35:27.287Z,17.34
2018-07-25T15:38:05.017Z,18.81
2018-07-25T15:40:33.160Z,18.06
2018-07-25T15:43:12.228Z,18.78
2018-07-25T15:45:41.919Z,18.04
2018-07-25T15:48:09.847Z,17.52
2018-07-25T15:50:37.687Z,18.15
2018-07-25T15:53:05.428Z,18.39
2018-07-25T15:55:33.275Z,17.92
2018-07-25T15:58:01.027Z,18.80
2018-07-25T16:00:30.289Z,18.30
2018-07-25T16:02:58.139Z,18.45
2018-07-25T16:05:26.043Z,19.42
2018-07-25T16:07:53.779Z,18.46
2018-07-25T16:10:21.559Z,18.15
2018-07-25T16:12:49.367Z,18.35
2018-07-25T16:15:17.142Z,19.43
2018-07-25T16:17:44.895Z,19.09
2018-07-25T16:20:12.615Z,18.25
2018-07-25T16:22:40.460Z,18.14
2018-07-25T16:25:08.283Z,18.97
2018-07-25T16:27:36.091Z,18.62
2018-07-25T16:30:04.294Z,19.07
2018-07-25T16:32:32.133Z,18.90
2018-07-25T16:34:59.940Z,18.36
2018-07-25T16:37:27.719Z,18.84
2018-07-25T16:39:55.579Z,18.17
2018-07-25T16:42:23.391Z,18.28
2018-07-25T16:44:51.257Z,19.44
2018-07-25T16:47:19.079Z,19.08
2018-07-25T16:49:46.858Z,19.57
2018-07-25T16:52:14.707Z,20.46
2018-07-25T16:54:42.631Z,19.84
2018-07-25T16:57:10.468Z,20.19
2018-07-25T16:59:38.251Z,21.22
2018-07-25T17:02:06.092Z,20.59
2018-07-25T17:04:33.871Z,21.42
2018-07-25T17:07:01.683Z,21.20
2018-07-25T17:09:29.476Z,21.51
2018-07-25T17:11:57.212Z,21.73
2018-07-25T17:14:25.058Z,21.61
2018-07-25T17:16:52.827Z,22.46
2018-07-25T17:19:20.615Z,22.62
2018-07-25T17:21:48.411Z,22.56
2018-07-25T17:24:16.179Z,22.52
2018-07-25T17:26:43.970Z,22.10
2018-07-25T17:29:11.835Z,22.12
2018-07-25T17:31:39.667Z,22.95
2018-07-25T17:34:07.463Z,22.80
2018-07-25T17:36:35.296Z,23.70
2018-07-25T17:39:05.512Z,23.02
2018-07-25T17:41:33.365Z,23.93
2018-07-25T17:44:01.129Z,24.01
2018-07-25T17:46:28.871Z,24.00
2018-07-25T17:48:56.707Z,25.05
2018-07-25T17:51:24.499Z,25.75
2018-07-25T17:53:52.306Z,26.88
2018-07-25T17:56:20.147Z,26.75
2018-07-25T17:58:47.964Z,28.18
2018-07-25T18:01:15.808Z,29.09
2018-07-25T18:03:43.756Z,29.73
2018-07-25T18:06:11.604Z,30.52
2018-07-25T18:08:39.463Z,30.15
2018-07-25T18:11:07.211Z,30.82
2018-07-25T18:13:40.603Z,32.03
2018-07-25T18:16:08.420Z,33.32
2018-07-25T18:18:36.255Z,33.00
2018-07-25T18:21:04.112Z,32.62
2018-07-25T18:23:32.020Z,33.75
2018-07-25T18:25:59.824Z,32.57
2018-07-25T18:28:27.591Z,34.02
2018-07-25T18:30:55.427Z,32.75
2018-07-25T18:33:23.246Z,33.24
2018-07-25T18:35:51.042Z,33.07
2018-07-25T18:38:19.035Z,33.33
2018-07-25T18:40:46.846Z,32.97
2018-07-25T18:43:14.671Z,33.42
2018-07-25T18:45:42.519Z,32.54
2018-07-25T18:48:10.286Z,32.79
2018-07-25T18:50:37.993Z,33.11
2018-07-25T18:53:06.018Z,32.83
2018-07-25T18:55:33.930Z,32.85
2018-07-25T18:58:01.747Z,32.47
2018-07-25T19:00:29.488Z,33.22
2018-07-25T19:02:57.309Z,33.02
2018-07-25T19:05:30.848Z,33.24
2018-07-25T19:07:59.847Z,33.93
2018-07-25T19:10:27.667Z,35.37
2018-07-25T19:12:55.802Z,34.28
2018-07-25T19:15:30.841Z,34.23
2018-07-25T19:17:59.231Z,35.23
2018-07-25T19:20:27.074Z,34.23
2018-07-25T19:22:54.802Z,34.47
2018-07-25T19:25:22.557Z,34.92
2018-07-25T19:27:50.691Z,37.09
2018-07-25T19:30:18.535Z,36.89
2018-07-25T19:32:46.307Z,36.18
2018-07-25T19:35:14.203Z,35.82
2018-07-25T19:37:42.271Z,37.36
2018-07-25T19:40:10.063Z,36.26
2018-07-25T19:42:37.887Z,38.04
2018-07-25T19:45:05.807Z,36.82
2018-07-25T19:47:33.638Z,37.05
2018-07-25T19:50:01.460Z,38.63
2018-07-25T19:52:29.277Z,38.66
2018-07-25T19:54:57.055Z,39.45
2018-07-25T19:57:24.895Z,37.98
2018-07-25T19:59:52.683Z,39.86
2018-07-25T20:02:20.494Z,38.63
2018-07-25T20:04:48.271Z,40.01
2018-07-25T20:07:16.123Z,39.36
2018-07-25T20:09:43.958Z,39.20
2018-07-25T20:12:11.704Z,39.19
2018-07-25T20:14:45.109Z,39.43
2018-07-25T20:17:13.628Z,39.79
2018-07-25T20:19:41.456Z,38.79
2018-07-25T20:22:09.270Z,38.95
2018-07-25T20:24:37.054Z,38.11
2018-07-25T20:27:04.991Z,38.67
2018-07-25T20:29:32.847Z,38.54
2018-07-25T20:32:00.586Z,39.09
2018-07-25T20:34:28.471Z,38.63
2018-07-25T20:36:56.295Z,38.41
2018-07-25T20:39:24.127Z,39.89
2018-07-25T20:41:51.963Z,39.05
2018-07-25T20:44:19.754Z,39.93
2018-07-25T20:46:47.507Z,40.22
2018-07-25T20:49:15.299Z,40.21
2018-07-25T20:51:43.089Z,39.79
2018-07-25T20:54:10.928Z,40.18
2018-07-25T20:56:38.735Z,40.34
2018-07-25T20:59:06.520Z,40.52
2018-07-25T21:01:34.351Z,40.04
2018-07-25T21:04:02.260Z,40.99
2018-07-25T21:06:30.024Z,40.49
2018-07-25T21:08:57.819Z,40.78
2018-07-25T21:11:25.624Z,41.00
2018-07-25T21:13:53.347Z,40.95
2018-07-25T21:16:21.107Z,41.54
2018-07-25T21:18:48.952Z,41.22
2018-07-25T21:21:16.796Z,40.60
2018-07-25T21:23:44.600Z,41.13
2018-07-25T21:26:12.379Z,41.16
2018-07-25T21:28:40.144Z,42.57
2018-07-25T21:31:07.976Z,42.89
2018-07-25T21:33:35.740Z,41.95
2018-07-25T21:36:03.540Z,42.26
2018-07-25T21:38:31.555Z,41.99
2018-07-25T21:40:59.359Z,42.36
2018-07-25T21:43:27.175Z,41.51
2018-07-25T21:45:54.973Z,42.46
2018-07-25T21:48:22.809Z,42.85
2018-07-25T21:50:50.753Z,43.28
2018-07-25T21:53:18.550Z,42.82
2018-07-25T21:55:46.368Z,44.21
2018-07-25T21:58:14.131Z,43.48
2018-07-25T22:00:48.937Z,43.24
2018-07-25T22:03:17.015Z,43.55
2018-07-25T22:05:44.823Z,43.63
2018-07-25T22:08:12.611Z,43.21
2018-07-25T22:10:40.404Z,42.74
2018-07-25T22:13:08.336Z,43.15
2018-07-25T22:15:36.124Z,43.79
2018-07-25T22:18:04.119Z,43.12
2018-07-25T22:20:31.901Z,44.35
2018-07-25T22:22:59.687Z,44.80
2018-07-25T22:25:27.462Z,44.79
2018-07-25T22:27:55.324Z,45.33
2018-07-25T22:30:23.275Z,44.13
2018-07-25T22:32:51.123Z,45.52
2018-07-25T22:35:18.931Z,43.61
2018-07-25T22:37:46.947Z,44.89
2018-07-25T22:40:14.844Z,44.72
2018-07-25T22:42:42.639Z,43.73
2018-07-25T22:45:10.451Z,45.13
2018-07-25T22:47:38.311Z,45.94
2018-07-25T22:50:06.332Z,45.96
2018-07-25T22:52:34.136Z,45.43
2018-07-25T22:55:01.982Z,44.42
2018-07-25T22:57:29.779Z,44.13
2018-07-25T22:59:57.818Z,45.20
2018-07-25T23:02:27.372Z,44.55
2018-07-25T23:04:55.174Z,45.94
2018-07-25T23:07:22.958Z,45.83
2018-07-25T23:09:50.748Z,46.65
2018-07-25T23:12:18.576Z,46.41
2018-07-25T23:14:46.320Z,44.82
2018-07-25T23:17:14.091Z,45.56
2018-07-25T23:19:41.944Z,43.67
2018-07-25T23:22:09.814Z,45.09
2018-07-25T23:24:37.779Z,44.86
2018-07-25T23:27:05.575Z,45.84
2018-07-25T23:29:36.314Z,44.16
2018-07-25T23:32:10.595Z,45.24
2018-07-25T23:34:38.395Z,45.77
2018-07-25T23:37:06.467Z,45.88
2018-07-25T23:39:34.339Z,45.91
2018-07-25T23:42:02.093Z,46.17
2018-07-25T23:44:29.863Z,46.99
2018-07-25T23:46:57.839Z,45.90
2018-07-25T23:49:25.667Z,46.09
2018-07-25T23:51:54.023Z,45.20
2018-07-25T23:54:21.940Z,45.44
2018-07-25T23:56:49.868Z,46.29
2018-07-25T23:59:17.703Z,44.10
